Time;durP1;ratioP1;P1;durP2;ratioP2;P2;SDS_P1;SDS_P2;PMS_P1;PMS_P2;Temp;Humidity;BMP_temperature;BMP_pressure;BME280_temperature;BME280_humidity;BME280_pressure;Samples;Min_cycle;Max_cycle;Signal;HPM_P1;HPM_P2
2022/12/18 00:02:03;;;;;;;69.00;32.47;;;;;;;-4.88;100.00;101220.16;5053765;28;20033;-80
2022/12/18 00:04:29;;;;;;;71.00;32.28;;;;;;;-4.92;100.00;101216.63;5052389;28;20021;-81
2022/12/18 00:06:54;;;;;;;83.45;36.90;;;;;;;-4.91;100.00;101213.25;5053838;28;20025;-81
2022/12/18 00:09:20;;;;;;;80.20;38.97;;;;;;;-4.80;100.00;101231.50;5053523;28;20017;-80
2022/12/18 00:11:45;;;;;;;78.93;38.38;;;;;;;-4.89;100.00;101216.72;5053704;28;20028;-80
2022/12/18 00:14:12;;;;;;;76.55;35.72;;;;;;;-4.86;100.00;101219.38;5052408;28;20053;-81
2022/12/18 00:16:38;;;;;;;78.10;36.42;;;;;;;-4.84;100.00;101219.47;5051782;28;20021;-81
2022/12/18 00:19:05;;;;;;;66.10;29.98;;;;;;;-4.78;100.00;101229.88;5052844;28;20057;-80
2022/12/18 00:21:33;;;;;;;68.10;33.92;;;;;;;-4.78;100.00;101229.88;5053385;28;20438;-80
2022/12/18 00:24:00;;;;;;;69.45;31.17;;;;;;;-4.82;100.00;101226.34;5053544;28;20028;-80
2022/12/18 00:26:30;;;;;;;83.93;39.15;;;;;;;-4.80;100.00;101242.53;5053194;28;20072;-81
2022/12/18 00:29:01;;;;;;;72.57;34.00;;;;;;;-4.81;100.00;101245.00;5051974;28;20410;-81
2022/12/18 00:31:26;;;;;;;71.28;31.40;;;;;;;-4.87;100.00;101237.13;5053459;28;20345;-80
2022/12/18 00:33:55;;;;;;;85.43;35.92;;;;;;;-4.90;100.00;101231.91;5052073;28;20031;-80
2022/12/18 00:36:25;;;;;;;70.60;32.97;;;;;;;-4.80;100.00;101251.84;5051571;28;20037;-81
2022/12/18 00:38:52;;;;;;;69.13;30.60;;;;;;;-4.82;100.00;101249.22;5053172;28;20021;-81
2022/12/18 00:42:55;;;;;;;68.22;32.60;;;;;;;-4.83;100.00;101249.16;5053030;28;20020;-81
2022/12/18 00:44:05;;;;;;;78.93;35.72;;;;;;;-4.92;100.00;101243.69;5053009;28;20472;-81
2022/12/18 00:46:30;;;;;;;70.57;31.42;;;;;;;-4.91;100.00;101243.75;5051565;28;20024;-81
2022/12/18 00:48:56;;;;;;;62.20;28.23;;;;;;;-4.84;100.00;101255.06;5051606;28;20059;-81
2022/12/18 00:51:21;;;;;;;60.58;25.90;;;;;;;-4.84;100.00;101248.28;5052719;28;20098;-80
2022/12/18 00:53:46;;;;;;;59.08;25.52;;;;;;;-4.72;100.00;101272.47;5051566;28;20525;-80
2022/12/18 00:56:12;;;;;;;55.22;24.55;;;;;;;-4.77;100.00;101273.13;5052744;28;20025;-80
2022/12/18 00:58:37;;;;;;;56.72;26.63;;;;;;;-4.82;100.00;101266.13;5052708;28;20044;-80
2022/12/18 01:01:06;;;;;;;62.72;28.42;;;;;;;-4.77;100.00;101274.81;5051666;28;20017;-80
2022/12/18 01:03:32;;;;;;;55.75;25.98;;;;;;;-4.71;100.00;101281.84;5052473;28;20029;-80
2022/12/18 01:05:57;;;;;;;51.63;25.27;;;;;;;-4.74;100.00;101272.41;5052681;28;20357;-80
2022/12/18 01:08:22;;;;;;;72.95;35.05;;;;;;;-4.61;100.00;101296.66;5052439;28;20067;-81
2022/12/18 01:10:48;;;;;;;66.18;28.65;;;;;;;-4.68;100.00;101290.44;5052468;28;20024;-80
2022/12/18 01:13:13;;;;;;;62.08;30.40;;;;;;;-4.66;100.00;101291.38;5052669;28;20013;-80
2022/12/18 01:15:39;;;;;;;62.83;27.67;;;;;;;-4.67;100.00;101279.50;5052376;28;20025;-81
2022/12/18 01:18:05;;;;;;;59.72;28.60;;;;;;;-4.59;100.00;101289.97;5052378;28;20036;-81
2022/12/18 01:20:30;;;;;;;55.67;29.30;;;;;;;-4.61;100.00;101289.88;5052207;28;20465;-81
2022/12/18 01:22:56;;;;;;;62.30;29.58;;;;;;;-4.61;100.00;101292.44;5052326;28;20021;-81
2022/12/18 01:25:21;;;;;;;67.45;31.00;;;;;;;-4.55;100.00;101305.41;5052224;28;20144;-81
2022/12/18 01:27:46;;;;;;;60.72;28.17;;;;;;;-4.56;100.00;101303.66;5052180;28;20116;-81
2022/12/18 01:30:12;;;;;;;67.18;29.20;;;;;;;-4.61;100.00;101299.19;5051972;28;20020;-81
2022/12/18 01:32:37;;;;;;;56.60;27.63;;;;;;;-4.63;100.00;101305.91;5050174;28;20456;-81
2022/12/18 01:35:03;;;;;;;56.95;28.02;;;;;;;-4.61;100.00;101310.22;5050891;28;20365;-80
2022/12/18 01:37:28;;;;;;;65.97;30.63;;;;;;;-4.61;100.00;101302.59;5051737;28;20048;-80
2022/12/18 01:39:56;;;;;;;61.20;29.20;;;;;;;-4.60;100.00;101304.34;5051919;28;20021;-80
2022/12/18 01:42:22;;;;;;;57.42;27.63;;;;;;;-4.53;100.00;101320.72;5050796;28;20021;-80
2022/12/18 01:44:55;;;;;;;53.30;26.40;;;;;;;-4.60;100.00;101301.78;5050491;28;20020;-81
2022/12/18 01:47:39;;;;;;;51.50;26.50;;;;;;;-4.54;100.00;101319.84;5051946;28;20032;-80
2022/12/18 01:50:33;;;;;;;52.13;26.35;;;;;;;-4.54;100.00;101324.06;5051795;28;20476;-81
2022/12/18 01:53:12;;;;;;;55.20;26.48;;;;;;;-4.54;100.00;101321.53;5029467;28;20040;-81
2022/12/18 01:55:47;;;;;;;51.97;26.17;;;;;;;-4.51;100.00;101319.09;5029065;28;20025;-81
2022/12/18 01:58:13;;;;;;;52.97;26.55;;;;;;;-4.47;100.00;101332.81;5029158;28;20041;-81
2022/12/18 02:00:38;;;;;;;61.10;27.50;;;;;;;-4.60;100.00;101306.00;5029023;28;20032;-81
2022/12/18 02:03:04;;;;;;;58.80;27.85;;;;;;;-4.43;100.00;101327.91;5029473;28;20040;-81
2022/12/18 02:05:38;;;;;;;56.05;26.38;;;;;;;-4.38;100.00;101334.06;5029206;28;20047;-80
2022/12/18 02:08:16;;;;;;;61.75;28.10;;;;;;;-4.47;100.00;101320.97;5029403;28;20029;-81
2022/12/18 02:11:00;;;;;;;58.47;30.90;;;;;;;-4.37;100.00;101332.41;5012517;28;20030;-81
2022/12/18 02:13:34;;;;;;;56.53;29.15;;;;;;;-4.37;100.00;101340.03;5029348;28;20025;-81
2022/12/18 02:16:42;;;;;;;58.88;27.77;;;;;;;-4.39;100.00;101334.84;5029695;28;20037;-81
2022/12/18 02:19:22;;;;;;;53.17;24.55;;;;;;;-4.39;100.00;101336.53;4951035;29;20062;-81
2022/12/18 02:22:02;;;;;;;56.63;27.63;;;;;;;-4.41;100.00;101339.03;4951317;29;20042;-81
2022/12/18 02:24:41;;;;;;;56.85;27.98;;;;;;;-4.47;100.00;101338.75;4950799;29;20035;-81
2022/12/18 02:27:08;;;;;;;54.17;25.88;;;;;;;-4.42;100.00;101350.03;4951293;29;20027;-81
2022/12/18 02:29:42;;;;;;;54.17;26.27;;;;;;;-4.44;100.00;101343.13;4959220;28;20035;-81
2022/12/18 02:32:14;;;;;;;54.45;25.80;;;;;;;-4.42;100.00;101344.94;4954338;28;20101;-81
2022/12/18 02:34:39;;;;;;;53.65;24.55;;;;;;;-4.47;100.00;101341.31;4970024;28;20053;-81
2022/12/18 02:37:11;;;;;;;49.78;23.58;;;;;;;-4.41;100.00;101353.44;4953639;28;20494;-81
2022/12/18 02:39:40;;;;;;;48.22;23.52;;;;;;;-4.43;100.00;101352.47;4970444;28;20029;-81
2022/12/18 02:42:08;;;;;;;50.13;24.67;;;;;;;-4.40;100.00;101353.47;4970697;28;20113;-81
2022/12/18 02:44:47;;;;;;;53.95;23.45;;;;;;;-4.47;100.00;101340.44;4973865;28;20065;-80
2022/12/18 02:47:16;;;;;;;42.30;23.48;;;;;;;-4.47;100.00;101341.31;4973851;28;20043;-81
2022/12/18 02:49:56;;;;;;;48.40;24.27;;;;;;;-4.42;100.00;101346.63;4973689;28;20035;-80
2022/12/18 02:52:33;;;;;;;48.40;24.63;;;;;;;-4.42;100.00;101351.69;4973961;28;20039;-81
2022/12/18 02:55:18;;;;;;;47.72;24.25;;;;;;;-4.52;100.00;101335.16;4959847;28;20475;-80
2022/12/18 02:57:55;;;;;;;45.95;23.30;;;;;;;-4.39;100.00;101356.88;5053462;28;20025;-80
2022/12/18 03:00:27;;;;;;;44.38;23.83;;;;;;;-4.38;100.00;101356.97;5053728;28;20017;-81
2022/12/18 03:03:03;;;;;;;48.25;23.63;;;;;;;-4.38;100.00;101349.34;5053275;28;20032;-81
2022/12/18 03:05:38;;;;;;;49.72;23.05;;;;;;;-4.40;100.00;101342.44;5054845;28;20047;-80
2022/12/18 03:08:15;;;;;;;51.70;24.35;;;;;;;-4.35;100.00;101354.53;5055000;28;20489;-81
2022/12/18 03:11:04;;;;;;;48.38;23.42;;;;;;;-4.41;100.00;101351.75;5053371;28;20013;-81
2022/12/18 03:13:48;;;;;;;49.55;23.38;;;;;;;-4.33;100.00;101358.03;5053426;28;20032;-82
2022/12/18 03:16:25;;;;;;;54.78;24.98;;;;;;;-4.39;100.00;101355.22;5054881;28;20029;-80
2022/12/18 03:19:00;;;;;;;55.75;25.45;;;;;;;-4.33;100.00;101364.78;5054501;28;20067;-81
2022/12/18 03:21:29;;;;;;;45.35;23.73;;;;;;;-4.32;100.00;101375.00;5054558;28;20017;-81
2022/12/18 03:23:55;;;;;;;50.45;24.00;;;;;;;-4.37;100.00;101366.31;5053019;28;20124;-81
2022/12/18 03:26:24;;;;;;;47.05;22.23;;;;;;;-4.33;100.00;101378.38;5054904;28;20060;-81
2022/12/18 03:28:54;;;;;;;47.67;22.60;;;;;;;-4.34;100.00;101374.09;5054487;28;20028;-81
2022/12/18 03:31:22;;;;;;;47.33;24.20;;;;;;;-4.36;100.00;101373.16;5054409;28;20427;-80
2022/12/18 03:33:57;;;;;;;48.15;24.73;;;;;;;-4.31;100.00;101375.88;5054118;28;20029;-81
2022/12/18 03:36:23;;;;;;;49.45;23.42;;;;;;;-4.35;100.00;101364.69;5054312;28;20087;-81
2022/12/18 03:38:48;;;;;;;47.70;23.38;;;;;;;-4.30;100.00;101373.41;5054014;28;20116;-81
2022/12/18 03:42:00;;;;;;;48.78;24.35;;;;;;;-4.29;100.00;101375.16;5054582;28;20103;-81
2022/12/18 03:44:55;;;;;;;45.17;23.40;;;;;;;-4.28;100.00;101376.00;5053692;28;20033;-81
2022/12/18 03:47:33;;;;;;;43.00;22.02;;;;;;;-4.33;100.00;101373.28;5031690;28;20044;-81
2022/12/18 03:50:08;;;;;;;49.55;23.55;;;;;;;-4.29;100.00;101382.78;5031738;28;20037;-80
2022/12/18 03:52:42;;;;;;;51.33;22.95;;;;;;;-4.37;100.00;101373.09;5031465;28;20029;-80
2022/12/18 03:55:09;;;;;;;48.25;23.45;;;;;;;-4.35;100.00;101376.56;5014014;28;20024;-80
2022/12/18 03:57:35;;;;;;;43.75;21.63;;;;;;;-4.38;100.00;101371.34;5031196;28;20028;-81
2022/12/18 04:00:08;;;;;;;44.08;21.67;;;;;;;-4.35;100.00;101385.06;5031537;28;20021;-81
2022/12/18 04:02:35;;;;;;;43.78;22.45;;;;;;;-4.34;100.00;101391.00;5014625;28;20420;-81
2022/12/18 04:05:04;;;;;;;45.47;22.90;;;;;;;-4.33;100.00;101398.72;5031536;28;20065;-81
2022/12/18 04:07:30;;;;;;;46.90;23.92;;;;;;;-4.39;100.00;101393.34;5031407;28;20051;-81
2022/12/18 04:09:59;;;;;;;50.22;24.30;;;;;;;-4.36;100.00;101393.50;5031113;28;20096;-81
2022/12/18 04:12:26;;;;;;;56.42;25.35;;;;;;;-4.39;100.00;101390.81;5031295;28;20537;-81
2022/12/18 04:14:51;;;;;;;46.05;22.65;;;;;;;-4.31;100.00;101402.19;5014403;28;20025;-81
2022/12/18 04:17:17;;;;;;;41.63;20.92;;;;;;;-4.40;100.00;101385.69;5031176;28;20033;-81
2022/12/18 04:19:42;;;;;;;44.50;22.05;;;;;;;-4.33;100.00;101397.84;5031028;28;20099;-81
2022/12/18 04:22:10;;;;;;;45.85;23.10;;;;;;;-4.44;100.00;101386.34;5031059;28;20021;-81
2022/12/18 04:24:35;;;;;;;45.63;22.80;;;;;;;-4.40;100.00;101406.03;5044167;28;20116;-80
2022/12/18 04:27:00;;;;;;;42.67;21.15;;;;;;;-4.45;100.00;101402.44;5053549;28;20107;-81
2022/12/18 04:29:25;;;;;;;46.28;23.25;;;;;;;-4.47;100.00;101407.44;5053477;28;20025;-81
2022/12/18 04:31:51;;;;;;;41.05;21.30;;;;;;;-4.39;100.00;101423.00;5053082;28;20431;-80
2022/12/18 04:34:16;;;;;;;45.60;23.63;;;;;;;-4.34;100.00;101435.16;5053282;28;20020;-81
2022/12/18 04:36:41;;;;;;;42.72;21.48;;;;;;;-4.41;100.00;101420.41;5053083;28;20067;-81
2022/12/18 04:39:06;;;;;;;45.50;23.88;;;;;;;-4.39;100.00;101428.97;5051819;28;20440;-81
2022/12/18 04:41:32;;;;;;;41.70;21.20;;;;;;;-4.42;100.00;101416.16;5053148;28;20063;-81
2022/12/18 04:43:57;;;;;;;41.22;20.30;;;;;;;-4.43;100.00;101423.69;5053027;28;20017;-80
2022/12/18 04:46:22;;;;;;;41.03;20.83;;;;;;;-4.35;100.00;101445.22;5053028;28;20398;-80
2022/12/18 04:48:48;;;;;;;46.55;21.83;;;;;;;-4.44;100.00;101433.00;5052742;28;20021;-81
2022/12/18 04:51:13;;;;;;;40.22;20.85;;;;;;;-4.36;100.00;101438.41;5052607;28;20461;-80
2022/12/18 04:53:38;;;;;;;45.10;22.30;;;;;;;-4.44;100.00;101432.13;5052556;28;20404;-81
2022/12/18 04:56:06;;;;;;;50.58;25.85;;;;;;;-4.33;100.00;101443.63;5052923;28;20017;-81
2022/12/18 04:58:31;;;;;;;47.55;24.08;;;;;;;-4.41;100.00;101430.59;5052800;28;20099;-81
2022/12/18 05:00:56;;;;;;;52.05;25.95;;;;;;;-4.37;100.00;101446.84;5052593;28;20159;-81
2022/12/18 05:03:22;;;;;;;49.53;24.83;;;;;;;-4.40;100.00;101444.19;5052779;28;20029;-81
2022/12/18 05:05:51;;;;;;;44.78;24.23;;;;;;;-4.37;100.00;101457.03;5052178;28;20029;-81
2022/12/18 05:08:17;;;;;;;49.17;23.70;;;;;;;-4.46;100.00;101434.63;5052560;28;20032;-81
2022/12/18 05:10:42;;;;;;;47.45;25.67;;;;;;;-4.44;100.00;101439.75;5052531;28;20029;-81
2022/12/18 05:13:08;;;;;;;46.90;25.15;;;;;;;-4.40;100.00;101452.66;5052650;28;20388;-81
2022/12/18 05:15:33;;;;;;;48.42;24.42;;;;;;;-4.42;100.00;101458.50;5052860;28;20485;-81
2022/12/18 05:18:00;;;;;;;49.50;25.55;;;;;;;-4.50;100.00;101440.38;5052383;28;20017;-81
2022/12/18 05:20:26;;;;;;;53.83;24.88;;;;;;;-4.45;100.00;101450.75;5052277;28;20029;-81
2022/12/18 05:22:52;;;;;;;50.05;26.60;;;;;;;-4.54;100.00;101449.53;5051683;28;20481;-81
2022/12/18 05:25:17;;;;;;;56.30;26.05;;;;;;;-4.62;100.00;101437.31;5051230;28;20102;-81
2022/12/18 05:27:43;;;;;;;51.00;24.85;;;;;;;-4.47;100.00;101468.47;5050804;28;20476;-80
2022/12/18 05:30:09;;;;;;;42.58;23.35;;;;;;;-4.58;100.00;101442.59;5052173;28;20025;-80
2022/12/18 05:32:35;;;;;;;49.33;24.10;;;;;;;-4.54;100.00;101447.00;5050900;28;20028;-81
2022/12/18 05:35:00;;;;;;;48.75;23.92;;;;;;;-4.52;100.00;101447.91;5051913;28;20029;-81
2022/12/18 05:37:25;;;;;;;48.08;24.42;;;;;;;-4.44;100.00;101462.66;5050653;28;20072;-81
2022/12/18 05:39:51;;;;;;;51.88;25.75;;;;;;;-4.44;100.00;101463.50;5050905;28;20027;-81
2022/12/18 05:42:16;;;;;;;49.88;26.70;;;;;;;-4.41;100.00;101470.41;5052154;28;20492;-81
2022/12/18 05:44:43;;;;;;;48.45;25.10;;;;;;;-4.42;100.00;101479.72;5050540;28;20029;-80
2022/12/18 05:47:08;;;;;;;50.42;24.55;;;;;;;-4.48;100.00;101487.06;5052067;28;20044;-81
2022/12/18 05:49:33;;;;;;;49.65;25.85;;;;;;;-4.52;100.00;101485.19;5052070;28;20056;-81
2022/12/18 05:51:59;;;;;;;49.75;24.75;;;;;;;-4.46;100.00;101505.81;5051775;28;20444;-80
2022/12/18 05:54:27;;;;;;;48.63;25.55;;;;;;;-4.51;100.00;101484.38;5052047;28;20021;-81
2022/12/18 05:56:52;;;;;;;47.47;23.38;;;;;;;-4.46;100.00;101502.41;5051803;28;20028;-81
2022/12/18 05:59:18;;;;;;;47.72;25.08;;;;;;;-4.48;100.00;101498.91;5051855;28;20021;-81
2022/12/18 06:01:43;;;;;;;52.47;26.38;;;;;;;-4.46;100.00;101505.81;5051534;28;20039;-81
2022/12/18 06:04:08;;;;;;;51.22;25.85;;;;;;;-4.53;100.00;101496.19;5051717;28;20070;-81
2022/12/18 06:06:33;;;;;;;50.65;26.08;;;;;;;-4.54;100.00;101492.78;5051624;28;20024;-81
2022/12/18 06:08:59;;;;;;;51.28;24.85;;;;;;;-4.51;100.00;101504.72;5051780;28;20045;-81
2022/12/18 06:11:26;;;;;;;49.45;25.08;;;;;;;-4.43;100.00;101518.66;5051835;28;20024;-81
2022/12/18 06:13:53;;;;;;;49.42;25.25;;;;;;;-4.59;100.00;101509.50;5050203;28;20127;-81
2022/12/18 06:16:19;;;;;;;51.50;24.63;;;;;;;-4.58;100.00;101520.53;5051688;28;20029;-82
2022/12/18 06:18:44;;;;;;;51.20;25.67;;;;;;;-4.52;100.00;101533.50;5054671;28;20025;-81
2022/12/18 06:21:10;;;;;;;50.70;29.02;;;;;;;-4.58;100.00;101518.00;5054323;28;20106;-81
2022/12/18 06:23:35;;;;;;;59.03;30.40;;;;;;;-4.57;100.00;101522.28;5055724;28;20029;-81
2022/12/18 06:26:09;;;;;;;57.38;27.85;;;;;;;-4.53;100.00;101524.16;5055629;28;20422;-81
2022/12/18 06:28:34;;;;;;;56.35;27.48;;;;;;;-4.57;100.00;101525.69;5055782;28;20032;-81
2022/12/18 06:31:00;;;;;;;56.58;26.52;;;;;;;-4.57;100.00;101535.00;5055255;28;20016;-81
2022/12/18 06:33:28;;;;;;;54.50;26.42;;;;;;;-4.60;100.00;101527.22;5054188;28;20051;-81
2022/12/18 06:35:54;;;;;;;46.83;25.05;;;;;;;-4.56;100.00;101541.81;5055248;28;20041;-81
2022/12/18 06:38:19;;;;;;;53.05;24.58;;;;;;;-4.56;100.00;101542.66;5055524;28;20063;-81
2022/12/18 06:40:45;;;;;;;48.95;26.10;;;;;;;-4.63;100.00;101533.06;5055151;28;20029;-81
2022/12/18 06:43:10;;;;;;;54.63;25.30;;;;;;;-4.58;100.00;101548.50;5055308;28;20103;-81
2022/12/18 06:45:35;;;;;;;51.05;24.38;;;;;;;-4.64;100.00;101554.16;5055685;28;20082;-81
2022/12/18 06:48:01;;;;;;;52.13;25.95;;;;;;;-4.64;100.00;101559.25;5055036;28;20360;-81
2022/12/18 06:50:26;;;;;;;52.65;26.13;;;;;;;-4.79;100.00;101550.94;5055505;28;20032;-81
2022/12/18 06:52:51;;;;;;;53.20;25.67;;;;;;;-4.80;100.00;101572.09;5053694;28;20029;-81
2022/12/18 06:55:17;;;;;;;44.35;22.63;;;;;;;-4.81;100.00;101565.25;5055067;28;20021;-81
2022/12/18 06:57:42;;;;;;;49.78;23.88;;;;;;;-4.78;100.00;101576.44;5053746;28;20488;-81
2022/12/18 07:00:08;;;;;;;49.97;24.92;;;;;;;-4.81;100.00;101565.25;5054860;28;20021;-81
2022/12/18 07:02:33;;;;;;;51.45;24.65;;;;;;;-4.77;100.00;101568.00;5053686;28;20480;-81
2022/12/18 07:04:58;;;;;;;51.85;26.23;;;;;;;-4.70;100.00;101581.00;5054961;28;20106;-81
2022/12/18 07:07:24;;;;;;;52.85;26.13;;;;;;;-4.71;100.00;101564.03;5053657;28;20024;-81
2022/12/18 07:09:50;;;;;;;48.05;25.63;;;;;;;-4.68;100.00;101580.25;5054853;28;20036;-81
2022/12/18 07:12:16;;;;;;;46.25;23.75;;;;;;;-4.67;100.00;101574.38;5054904;28;20421;-81
2022/12/18 07:14:41;;;;;;;44.88;23.25;;;;;;;-4.64;100.00;101576.19;5054829;28;20114;-81
2022/12/18 07:17:07;;;;;;;44.03;22.92;;;;;;;-4.60;100.00;101585.69;5054510;28;20028;-81
2022/12/18 07:19:32;;;;;;;44.45;23.08;;;;;;;-4.62;100.00;101579.69;5053223;28;20029;-81
2022/12/18 07:21:58;;;;;;;45.42;24.15;;;;;;;-4.60;100.00;101581.47;5054609;28;20029;-82
2022/12/18 07:24:23;;;;;;;51.05;24.85;;;;;;;-4.67;100.00;101569.31;5053398;28;20032;-81
2022/12/18 07:26:48;;;;;;;45.47;23.48;;;;;;;-4.65;100.00;101577.00;5054378;28;20017;-82
2022/12/18 07:29:14;;;;;;;51.70;24.65;;;;;;;-4.66;100.00;101578.66;5054514;28;20490;-82
2022/12/18 07:31:39;;;;;;;48.28;24.67;;;;;;;-4.67;100.00;101581.16;5054544;28;20024;-82
2022/12/18 07:34:04;;;;;;;49.75;24.85;;;;;;;-4.70;100.00;101578.47;5054079;28;20036;-82
2022/12/18 07:36:30;;;;;;;43.13;22.83;;;;;;;-4.63;100.00;101603.38;5054247;28;20044;-82
2022/12/18 07:38:55;;;;;;;46.85;24.20;;;;;;;-4.69;100.00;101593.78;5052886;28;20024;-82
2022/12/18 07:41:21;;;;;;;49.42;26.48;;;;;;;-4.71;100.00;101604.69;5054425;28;20036;-82
2022/12/18 07:43:47;;;;;;;43.88;24.05;;;;;;;-4.75;100.00;101598.59;5054293;28;20020;-82
2022/12/18 07:46:14;;;;;;;53.28;26.60;;;;;;;-4.81;100.00;101609.31;5054291;28;20484;-82
2022/12/18 07:48:40;;;;;;;43.05;23.35;;;;;;;-4.87;100.00;101593.81;5054340;28;20107;-82
2022/12/18 07:51:06;;;;;;;50.90;26.35;;;;;;;-4.84;100.00;101593.94;5054117;28;20104;-82
2022/12/18 07:53:33;;;;;;;53.85;25.55;;;;;;;-4.75;100.00;101607.88;5054064;28;20108;-82
2022/12/18 07:56:00;;;;;;;50.83;26.13;;;;;;;-4.73;100.00;101609.69;5053937;28;20029;-82
2022/12/18 07:58:25;;;;;;;48.63;24.25;;;;;;;-4.64;100.00;101620.28;5053986;28;20025;-82
2022/12/18 08:00:52;;;;;;;55.35;28.60;;;;;;;-4.75;100.00;101611.31;5053708;28;20025;-82
2022/12/18 08:03:17;;;;;;;54.47;28.83;;;;;;;-4.63;100.00;101628.81;5054094;28;20024;-82
2022/12/18 08:05:42;;;;;;;53.85;27.75;;;;;;;-4.60;100.00;101627.25;5053731;28;20025;-82
2022/12/18 08:08:08;;;;;;;55.45;27.88;;;;;;;-4.54;100.00;101634.31;5053999;28;20895;-82
2022/12/18 08:10:33;;;;;;;64.38;34.47;;;;;;;-4.58;100.00;101618.03;5053904;28;20094;-82
2022/12/18 08:12:58;;;;;;;60.78;32.45;;;;;;;-4.49;100.00;101629.44;5053403;28;20035;-82
2022/12/18 08:15:23;;;;;;;59.15;32.53;;;;;;;-4.48;100.00;101632.03;5070893;28;20581;-82
2022/12/18 08:17:49;;;;;;;61.67;32.33;;;;;;;-4.55;100.00;101633.44;5071194;28;20036;-82
2022/12/18 08:20:14;;;;;;;64.53;34.55;;;;;;;-4.46;100.00;101635.53;5071164;28;20633;-81
2022/12/18 08:22:41;;;;;;;73.75;36.15;;;;;;;-4.39;100.00;101657.88;5070928;28;20025;-82
2022/12/18 08:25:07;;;;;;;78.10;39.75;;;;;;;-4.41;100.00;101651.88;5071090;28;20411;-81
2022/12/18 08:27:32;;;;;;;70.00;34.85;;;;;;;-4.49;100.00;101647.22;5070913;28;20048;-82
2022/12/18 08:29:57;;;;;;;73.80;35.35;;;;;;;-4.39;100.00;101665.50;5070566;28;20086;-81
2022/12/18 08:32:25;;;;;;;68.93;34.40;;;;;;;-4.33;100.00;101659.84;5070695;28;20032;-82
2022/12/18 08:34:50;;;;;;;77.75;43.08;;;;;;;-4.30;100.00;101662.53;5070822;28;20072;-82
2022/12/18 08:37:15;;;;;;;73.15;42.40;;;;;;;-4.40;100.00;101638.34;5070137;28;20106;-82
2022/12/18 08:39:40;;;;;;;75.40;40.60;;;;;;;-4.31;100.00;101655.69;5070210;28;20036;-81
2022/12/18 08:44:49;;;;;;;71.43;37.08;;;;;;;-4.42;100.00;101665.41;5070729;28;20032;-81
2022/12/18 08:47:15;;;;;;;72.45;37.75;;;;;;;-4.42;100.00;101667.94;5055210;28;20037;-81
2022/12/18 08:49:40;;;;;;;88.80;44.13;;;;;;;-4.39;100.00;101685.00;5053264;28;20553;-82
2022/12/18 08:52:06;;;;;;;74.22;39.10;;;;;;;-4.36;100.00;101692.78;5050642;28;20112;-82
2022/12/18 08:54:31;;;;;;;101.30;48.95;;;;;;;-4.42;100.00;101679.78;5052903;28;20047;-81
2022/12/18 08:56:56;;;;;;;76.28;40.35;;;;;;;-4.40;100.00;101688.34;5052580;28;20017;-81
2022/12/18 08:59:23;;;;;;;69.32;35.92;;;;;;;-4.46;99.71;101666.06;5051216;28;20048;-81
2022/12/18 09:01:48;;;;;;;74.55;38.42;;;;;;;-4.39;99.53;101664.66;5052288;28;20467;-81
2022/12/18 09:04:13;;;;;;;66.65;36.42;;;;;;;-4.27;99.69;101677.94;5052127;28;20103;-81
2022/12/18 09:06:39;;;;;;;68.32;37.75;;;;;;;-4.27;99.45;101665.22;5052670;28;20366;-81
2022/12/18 09:09:04;;;;;;;67.97;37.28;;;;;;;-4.27;99.43;101653.34;5052323;28;20108;-81
2022/12/18 09:11:31;;;;;;;72.68;39.05;;;;;;;-4.22;99.28;101650.16;5052699;28;20361;-82
2022/12/18 09:13:57;;;;;;;71.75;40.70;;;;;;;-4.25;98.82;101650.03;5051870;28;20021;-81
2022/12/18 09:16:24;;;;;;;76.95;38.42;;;;;;;-4.17;98.67;101644.50;5052652;28;20025;-81
2022/12/18 09:18:49;;;;;;;74.82;38.38;;;;;;;-4.22;98.45;101639.97;5051081;28;20136;-81
2022/12/18 09:21:20;;;;;;;77.60;41.75;;;;;;;-4.30;97.87;101637.06;5052390;28;20496;-82
2022/12/18 09:23:54;;;;;;;70.07;38.13;;;;;;;-4.31;97.67;101633.66;5052078;28;20044;-81
2022/12/18 09:26:24;;;;;;;84.50;44.40;;;;;;;-4.28;98.12;101641.44;5052131;28;20372;-81
2022/12/18 09:28:50;;;;;;;101.95;63.17;;;;;;;-4.15;98.48;101640.31;5052445;28;20064;-81
2022/12/18 09:31:17;;;;;;;101.78;60.78;;;;;;;-4.28;98.38;101616.00;5052023;28;20021;-81
2022/12/18 09:33:42;;;;;;;75.22;40.65;;;;;;;-4.35;97.65;101631.78;5052002;28;20029;-81
2022/12/18 09:36:10;;;;;;;80.70;41.65;;;;;;;-4.50;97.73;101633.66;5051800;28;20128;-81
2022/12/18 09:38:35;;;;;;;68.43;38.25;;;;;;;-4.64;98.57;101602.47;5051944;28;20074;-81
2022/12/18 09:41:15;;;;;;;84.90;41.50;;;;;;;-4.51;99.03;101601.38;5051453;28;20025;-81
2022/12/18 09:43:45;;;;;;;71.50;38.42;;;;;;;-4.32;98.52;101616.66;5051536;28;20021;-82
2022/12/18 09:46:17;;;;;;;67.43;34.95;;;;;;;-4.39;98.23;101616.31;5051383;28;20039;-82
2022/12/18 09:48:47;;;;;;;69.45;40.30;;;;;;;-4.53;98.14;101623.31;5050705;28;20392;-82
2022/12/18 09:51:20;;;;;;;78.60;42.63;;;;;;;-4.43;98.40;101630.56;5051156;28;20029;-82
2022/12/18 09:53:52;;;;;;;74.53;38.92;;;;;;;-4.52;98.61;101618.31;5051344;28;20108;-82
2022/12/18 09:56:22;;;;;;;72.90;40.65;;;;;;;-4.43;98.71;101617.84;5050402;28;20487;-82
2022/12/18 09:59:01;;;;;;;66.00;38.50;;;;;;;-4.55;98.70;101596.94;5051770;28;20456;-82
2022/12/18 10:01:28;;;;;;;73.10;40.67;;;;;;;-4.51;98.64;101624.25;5050282;28;20032;-82
2022/12/18 10:03:54;;;;;;;61.63;33.30;;;;;;;-4.60;98.82;101626.38;5051401;28;20021;-82
2022/12/18 10:06:27;;;;;;;64.63;34.05;;;;;;;-4.71;99.00;101612.31;5051303;28;20100;-82
2022/12/18 10:09:11;;;;;;;61.42;31.67;;;;;;;-4.79;98.64;101607.75;5051659;28;20112;-82
2022/12/18 10:11:54;;;;;;;61.45;32.65;;;;;;;-4.50;99.13;101637.88;5051988;28;20025;-82
2022/12/18 10:14:48;;;;;;;68.30;36.33;;;;;;;-4.55;99.16;101630.91;5051327;28;20070;-82
2022/12/18 10:17:35;;;;;;;62.55;33.78;;;;;;;-4.69;98.55;101647.16;5051443;28;20112;-82
2022/12/18 10:20:19;;;;;;;69.43;35.00;;;;;;;-4.74;99.04;101637.59;5051137;28;20116;-82
2022/12/18 10:22:56;;;;;;;67.47;35.17;;;;;;;-4.82;99.50;101622.84;5051451;28;20028;-82
2022/12/18 10:25:36;;;;;;;65.65;30.98;;;;;;;-4.61;99.59;101637.34;5051322;28;20486;-82
2022/12/18 10:28:13;;;;;;;48.25;26.48;;;;;;;-4.59;99.57;101623.06;5050976;28;20056;-82
2022/12/18 10:30:39;;;;;;;77.95;40.83;;;;;;;-4.53;98.99;101634.38;5051094;28;20036;-82
2022/12/18 10:33:05;;;;;;;76.45;38.83;;;;;;;-4.58;98.71;101630.75;5050966;28;20503;-82
2022/12/18 10:35:30;;;;;;;78.18;40.55;;;;;;;-4.57;99.27;101622.31;5051106;28;20029;-82
2022/12/18 10:38:19;;;;;;;72.53;40.05;;;;;;;-4.37;99.00;101633.41;5051456;28;20087;-82
2022/12/18 10:40:50;;;;;;;71.30;37.15;;;;;;;-4.30;98.70;101632.91;5012461;28;20033;-82
2022/12/18 10:43:20;;;;;;;78.03;42.75;;;;;;;-4.23;98.77;101628.94;5012122;28;20029;-82
2022/12/18 10:46:09;;;;;;;62.63;35.28;;;;;;;-4.25;98.80;101617.84;5028807;28;20037;-82
2022/12/18 10:48:46;;;;;;;69.35;38.03;;;;;;;-4.15;98.69;101632.69;5012643;28;20484;-83
2022/12/18 10:51:39;;;;;;;68.43;37.00;;;;;;;-4.16;98.47;101620.78;5028927;28;20560;-83
2022/12/18 10:54:12;;;;;;;59.35;31.00;;;;;;;-4.19;97.85;101624.84;5028417;28;20090;-82
2022/12/18 10:56:37;;;;;;;62.33;31.88;;;;;;;-4.05;98.10;101631.41;5029111;28;20100;-83
2022/12/18 10:59:08;;;;;;;73.15;35.58;;;;;;;-3.99;97.78;101636.78;5028688;28;20076;-82
2022/12/18 11:01:48;;;;;;;;;;;;;;;-4.17;96.92;101658.84;5029478;28;20033;-82
2022/12/18 11:04:23;;;;;;;62.63;32.33;;;;;;;-4.35;97.32;101639.41;5031046;28;19992;-83
2022/12/18 11:06:56;;;;;;;56.50;29.95;;;;;;;-4.28;97.62;101638.91;5032696;28;20028;-81
2022/12/18 11:09:34;;;;;;;61.35;32.22;;;;;;;-4.04;98.04;101662.03;5015804;28;20036;-81
2022/12/18 11:12:14;;;;;;;55.03;30.48;;;;;;;-3.95;97.58;101660.72;5032592;28;20033;-81
2022/12/18 11:14:47;;;;;;;58.30;32.47;;;;;;;-3.91;97.28;101660.06;5016078;28;20025;-78
2022/12/18 11:17:30;;;;;;;60.25;32.40;;;;;;;-4.07;96.43;101668.66;5038309;28;20043;-79